Time;durP1;ratioP1;P1;durP2;ratioP2;P2;SDS_P1;SDS_P2;PMS_P1;PMS_P2;Temp;Humidity;BMP_temperature;BMP_pressure;BME280_temperature;BME280_humidity;BME280_pressure;Samples;Min_cycle;Max_cycle;Signal;HPM_P1;HPM_P2
2022/12/19 04:51:54;;;;;;;21.88;14.57;;;9.20;59.40;;;;;;4824104;29;20457;-77
2022/12/19 04:54:26;;;;;;;28.05;14.45;;;9.20;59.60;;;;;;4836238;29;20057;-78
2022/12/19 04:56:52;;;;;;;23.65;13.57;;;9.30;60.00;;;;;;4826407;29;20137;-78
2022/12/19 04:59:18;;;;;;;25.00;12.35;;;9.40;60.30;;;;;;4832091;29;20084;-77
2022/12/19 05:01:44;;;;;;;27.58;13.55;;;9.60;60.30;;;;;;4843512;29;20081;-77
2022/12/19 05:04:10;;;;;;;31.75;13.38;;;9.90;60.40;;;;;;4844159;29;20054;-77
2022/12/19 05:06:36;;;;;;;23.83;11.30;;;10.20;60.00;;;;;;4835865;29;20109;-77
2022/12/19 05:09:02;;;;;;;18.33;9.98;;;10.50;59.40;;;;;;4820716;29;20050;-82
2022/12/19 05:11:27;;;;;;;19.15;9.90;;;10.70;58.80;;;;;;4816241;29;20046;-77
2022/12/19 05:13:53;;;;;;;23.30;10.60;;;11.00;58.20;;;;;;4825699;29;20050;-78
2022/12/19 05:16:19;;;;;;;17.52;9.20;;;11.10;58.10;;;;;;4826036;29;20199;-77
2022/12/19 05:18:45;;;;;;;24.33;10.07;;;11.30;58.00;;;;;;4827912;29;20137;-77
2022/12/19 05:21:11;;;;;;;20.02;9.40;;;11.40;57.90;;;;;;4844216;29;20053;-79
2022/12/19 05:23:37;;;;;;;18.15;8.43;;;11.50;57.80;;;;;;4844928;29;20050;-77
2022/12/19 05:26:04;;;;;;;17.25;8.10;;;11.70;57.70;;;;;;4843782;29;20064;-77
2022/12/19 05:28:31;;;;;;;19.33;8.10;;;11.80;57.70;;;;;;4844180;29;20054;-77
2022/12/19 05:31:15;;;;;;;16.92;7.75;;;11.90;57.80;;;;;;4812403;29;20050;-75
2022/12/19 05:33:41;;;;;;;;;;;12.00;58.00;;;;;;4846560;29;20065;-76
2022/12/19 05:36:08;;;;;;;25.90;7.78;;;12.20;57.80;;;;;;4831700;29;20340;-76
2022/12/19 05:38:34;;;;;;;22.02;7.35;;;12.30;57.70;;;;;;4847501;29;20124;-76
2022/12/19 05:41:09;;;;;;;16.05;6.75;;;12.30;57.70;;;;;;4847343;29;20419;-77
2022/12/19 05:43:35;;;;;;;15.32;7.30;;;12.40;57.60;;;;;;4832207;29;20050;-74
2022/12/19 05:46:02;;;;;;;20.27;6.43;;;12.50;57.70;;;;;;4829234;29;20454;-75
2022/12/19 05:48:29;;;;;;;18.85;6.57;;;12.60;57.80;;;;;;4829470;29;20038;-74
2022/12/19 05:50:54;;;;;;;17.95;5.78;;;12.70;58.00;;;;;;4829021;29;20038;-73
2022/12/19 05:53:20;;;;;;;23.63;6.85;;;12.80;58.20;;;;;;4829125;29;20099;-74
2022/12/19 05:55:46;;;;;;;13.95;6.30;;;12.50;58.00;;;;;;4829232;29;20127;-78
2022/12/19 05:58:11;;;;;;;20.85;6.05;;;12.70;58.30;;;;;;4829017;29;20066;-74
2022/12/19 06:00:37;;;;;;;15.18;5.70;;;12.80;58.20;;;;;;4828988;29;20054;-74
2022/12/19 06:03:03;;;;;;;14.55;5.78;;;12.90;57.90;;;;;;4814875;29;20043;-72
2022/12/19 06:05:29;;;;;;;13.25;5.65;;;13.00;57.70;;;;;;4818371;29;20081;-77
2022/12/19 06:07:55;;;;;;;14.95;5.43;;;13.10;57.40;;;;;;4828900;29;20122;-71
2022/12/19 06:10:20;;;;;;;17.90;6.00;;;13.10;57.50;;;;;;4828692;29;20377;-75
2022/12/19 06:12:46;;;;;;;21.45;6.60;;;13.20;57.70;;;;;;4817128;29;20051;-74
2022/12/19 06:15:12;;;;;;;14.32;5.50;;;12.90;57.00;;;;;;4810771;29;20054;-73
2022/12/19 06:17:38;;;;;;;14.57;4.95;;;13.00;58.60;;;;;;4810687;29;20054;-75
2022/12/19 06:20:05;;;;;;;14.55;4.93;;;13.00;58.80;;;;;;4810993;29;20342;-74
2022/12/19 06:22:31;;;;;;;14.00;4.10;;;13.20;59.20;;;;;;4810094;29;20130;-74
2022/12/19 06:24:56;;;;;;;13.52;4.72;;;13.30;59.30;;;;;;4810603;29;20129;-73
2022/12/19 06:27:22;;;;;;;12.23;4.28;;;13.40;59.40;;;;;;4810450;29;20129;-71
2022/12/19 06:29:48;;;;;;;11.55;5.35;;;13.40;59.40;;;;;;4810272;29;20051;-74
2022/12/19 06:32:14;;;;;;;21.33;4.68;;;13.50;59.00;;;;;;4810152;29;20051;-79
2022/12/19 06:34:42;;;;;;;19.23;4.68;;;13.60;58.40;;;;;;4810533;29;20039;-73
2022/12/19 06:37:08;;;;;;;16.83;4.82;;;13.60;58.00;;;;;;4794360;29;20050;-74
2022/12/19 06:39:34;;;;;;;12.68;4.30;;;13.60;57.70;;;;;;4797253;29;20072;-73
2022/12/19 06:44:44;;;;;;;11.05;4.10;;;13.80;57.20;;;;;;4810295;29;20439;-72
2022/12/19 06:47:10;;;;;;;13.40;3.78;;;13.90;56.70;;;;;;4809910;29;20123;-77
2022/12/19 06:49:35;;;;;;;12.27;4.00;;;14.00;56.50;;;;;;4809443;29;20090;-77
2022/12/19 06:52:02;;;;;;;23.02;4.75;;;14.00;56.30;;;;;;4814555;29;20058;-76
2022/12/19 06:54:28;;;;;;;13.55;4.35;;;13.90;56.50;;;;;;4824919;29;20050;-75
2022/12/19 06:56:53;;;;;;;22.80;4.70;;;14.00;56.80;;;;;;4826626;29;20049;-75
2022/12/19 06:59:19;;;;;;;16.20;4.10;;;14.00;57.10;;;;;;4827912;29;20455;-76
2022/12/19 07:01:59;;;;;;;19.10;4.78;;;14.10;57.40;;;;;;4826992;29;20061;-77
2022/12/19 07:04:40;;;;;;;19.77;4.15;;;14.20;57.50;;;;;;4836683;29;20046;-75
2022/12/19 07:07:07;;;;;;;15.10;3.45;;;14.10;57.90;;;;;;4839357;29;20093;-74
2022/12/19 07:09:34;;;;;;;10.50;3.13;;;14.20;57.80;;;;;;4837199;29;20118;-75
2022/12/19 07:12:00;;;;;;;17.30;3.63;;;14.20;57.70;;;;;;4837510;29;20058;-75
2022/12/19 07:14:26;;;;;;;14.90;3.53;;;14.30;57.50;;;;;;4827951;29;20050;-76
2022/12/19 07:16:53;;;;;;;12.73;3.50;;;14.40;57.40;;;;;;4829273;29;20064;-74
2022/12/19 07:19:19;;;;;;;14.52;3.20;;;14.50;57.20;;;;;;4796682;29;20131;-74
2022/12/19 07:21:45;;;;;;;12.55;3.25;;;14.50;57.30;;;;;;4811786;29;20058;-74
2022/12/19 07:24:13;;;;;;;15.13;3.72;;;14.50;57.20;;;;;;4826845;29;20053;-74
2022/12/19 07:26:40;;;;;;;28.15;3.67;;;14.60;57.20;;;;;;4811615;29;20108;-75
2022/12/19 07:29:07;;;;;;;21.48;3.83;;;14.70;57.40;;;;;;4827054;29;20137;-75
2022/12/19 07:31:32;;;;;;;16.48;3.85;;;14.70;57.40;;;;;;4827170;29;20054;-72
2022/12/19 07:33:58;;;;;;;19.77;3.30;;;14.70;57.30;;;;;;4826683;29;20038;-74
2022/12/19 07:36:24;;;;;;;25.20;3.75;;;14.70;57.40;;;;;;4811519;29;20137;-76
2022/12/19 07:38:49;;;;;;;14.52;2.70;;;14.80;57.30;;;;;;4827372;29;20050;-74
2022/12/19 07:41:16;;;;;;;12.73;2.92;;;14.90;57.20;;;;;;4835273;29;20351;-73
2022/12/19 07:43:42;;;;;;;12.35;3.33;;;14.90;57.10;;;;;;4812323;29;20458;-73
2022/12/19 07:46:07;;;;;;;14.80;3.22;;;14.90;57.10;;;;;;4826740;29;20198;-73
2022/12/19 07:48:33;;;;;;;14.88;3.25;;;14.90;57.20;;;;;;4827324;29;20061;-74
2022/12/19 07:50:59;;;;;;;10.85;2.60;;;14.90;57.20;;;;;;4827247;29;20066;-73
2022/12/19 07:53:26;;;;;;;17.25;2.70;;;14.90;57.00;;;;;;4826600;29;20062;-73
2022/12/19 07:55:52;;;;;;;14.68;3.13;;;15.00;56.70;;;;;;4827002;29;20122;-73
2022/12/19 07:58:18;;;;;;;16.90;2.72;;;15.10;56.30;;;;;;4827195;29;20050;-75
2022/12/19 08:00:44;;;;;;;9.02;2.60;;;15.10;56.10;;;;;;4826778;29;20123;-74
2022/12/19 08:03:09;;;;;;;7.75;2.38;;;15.10;55.90;;;;;;4826612;29;20101;-74
2022/12/19 08:05:35;;;;;;;11.05;2.75;;;15.00;55.90;;;;;;4810007;29;20064;-73
2022/12/19 08:08:01;;;;;;;7.20;2.22;;;15.00;55.50;;;;;;4826752;29;20080;-75
2022/12/19 08:10:26;;;;;;;14.45;2.17;;;15.10;55.60;;;;;;4810233;29;20046;-75
2022/12/19 08:12:52;;;;;;;7.78;1.75;;;15.10;55.60;;;;;;4810434;29;20046;-74
2022/12/19 08:15:18;;;;;;;8.27;2.30;;;15.00;56.10;;;;;;4826731;29;20126;-74
2022/12/19 08:17:43;;;;;;;16.80;2.45;;;15.10;55.90;;;;;;4826449;29;20087;-76
2022/12/19 08:20:10;;;;;;;5.70;2.15;;;15.10;55.90;;;;;;4826813;29;20058;-73
2022/12/19 08:22:36;;;;;;;13.25;2.22;;;15.10;55.90;;;;;;4826353;29;20470;-74
2022/12/19 08:25:02;;;;;;;7.40;2.30;;;15.00;56.00;;;;;;4826859;29;20095;-75
2022/12/19 08:27:28;;;;;;;5.15;2.10;;;15.00;56.10;;;;;;4827067;29;20082;-74
2022/12/19 08:29:54;;;;;;;8.27;2.05;;;14.90;56.20;;;;;;4826369;29;20478;-74
2022/12/19 08:32:20;;;;;;;3.50;1.40;;;14.80;56.40;;;;;;4826205;29;20050;-73
2022/12/19 08:34:46;;;;;;;7.75;1.30;;;14.80;57.00;;;;;;4826651;29;20350;-73
2022/12/19 08:37:12;;;;;;;4.95;1.60;;;14.70;56.50;;;;;;4826821;29;20095;-76
2022/12/19 08:39:37;;;;;;;5.68;1.73;;;14.60;56.70;;;;;;4825520;29;20062;-74
2022/12/19 08:42:03;;;;;;;7.70;1.80;;;14.60;57.00;;;;;;4810136;29;20059;-75
2022/12/19 08:44:29;;;;;;;7.55;1.83;;;14.50;57.10;;;;;;4826591;29;20054;-75
2022/12/19 08:46:55;;;;;;;6.70;1.67;;;14.40;57.30;;;;;;4826453;29;20051;-77
2022/12/19 08:49:20;;;;;;;7.80;1.85;;;14.30;57.50;;;;;;4826961;29;20057;-75
2022/12/19 08:51:46;;;;;;;3.58;1.50;;;14.30;57.70;;;;;;4809837;29;20046;-77
2022/12/19 08:54:13;;;;;;;3.33;1.23;;;14.20;57.70;;;;;;4825796;29;20069;-75
2022/12/19 08:56:38;;;;;;;4.90;1.42;;;14.20;57.90;;;;;;4825858;29;20521;-76
2022/12/19 08:59:05;;;;;;;4.88;1.55;;;14.10;57.90;;;;;;4826447;29;20137;-74
2022/12/19 09:01:30;;;;;;;4.57;1.30;;;14.10;58.00;;;;;;4810224;29;20069;-78
2022/12/19 09:03:59;;;;;;;6.47;1.38;;;14.00;58.00;;;;;;4825775;29;20129;-75
2022/12/19 09:06:25;;;;;;;3.55;1.15;;;13.90;58.00;;;;;;4809817;29;20062;-76
2022/12/19 09:08:51;;;;;;;5.80;1.25;;;13.90;58.10;;;;;;4810096;29;20053;-77
2022/12/19 09:11:19;;;;;;;4.47;1.65;;;13.90;58.20;;;;;;4826361;29;20043;-75
2022/12/19 09:13:46;;;;;;;3.20;1.52;;;13.80;58.10;;;;;;4825554;29;20046;-76
2022/12/19 09:16:24;;;;;;;3.90;1.10;;;13.80;58.40;;;;;;4826027;29;20096;-74
2022/12/19 09:18:52;;;;;;;2.50;0.90;;;13.80;58.40;;;;;;4826176;29;20060;-75
2022/12/19 09:21:21;;;;;;;4.80;1.25;;;13.80;58.40;;;;;;4809901;29;20470;-77
2022/12/19 09:23:48;;;;;;;4.60;1.40;;;13.70;58.40;;;;;;4825206;29;20146;-73
2022/12/19 09:26:15;;;;;;;2.03;0.88;;;13.70;58.50;;;;;;4825007;29;20378;-77
2022/12/19 09:28:41;;;;;;;2.40;1.20;;;13.80;58.50;;;;;;4835536;29;20046;-75
2022/12/19 09:31:13;;;;;;;2.50;1.00;;;13.80;58.30;;;;;;4843290;29;20133;-77
2022/12/19 09:33:39;;;;;;;3.00;1.20;;;13.80;58.20;;;;;;4826567;29;20068;-76
2022/12/19 09:36:05;;;;;;;3.13;1.17;;;13.80;58.30;;;;;;4843803;29;20050;-76
2022/12/19 09:38:33;;;;;;;3.85;1.55;;;13.80;58.20;;;;;;4843067;29;20081;-76
2022/12/19 09:41:15;;;;;;;3.03;1.55;;;13.80;58.40;;;;;;4827386;29;20611;-77
2022/12/19 09:44:05;;;;;;;5.18;1.20;;;13.80;58.40;;;;;;4814589;29;20097;-78
2022/12/19 09:46:50;;;;;;;4.00;1.30;;;13.70;58.30;;;;;;4826592;29;20057;-74
2022/12/19 09:49:21;;;;;;;4.40;1.95;;;13.70;58.40;;;;;;4842935;29;20569;-75
2022/12/19 09:51:58;;;;;;;4.25;1.10;;;13.60;58.50;;;;;;4843325;29;20070;-75
2022/12/19 09:54:32;;;;;;;4.68;1.27;;;13.60;58.70;;;;;;4824659;29;20054;-75
2022/12/19 09:57:02;;;;;;;3.55;1.10;;;13.60;58.60;;;;;;4825398;29;20055;-79
2022/12/19 09:59:44;;;;;;;2.47;1.00;;;13.60;58.50;;;;;;4825388;29;20050;-76
2022/12/19 10:02:38;;;;;;;2.78;1.25;;;13.60;58.50;;;;;;4825126;29;20388;-77
2022/12/19 10:05:15;;;;;;;2.88;1.25;;;13.60;58.50;;;;;;4825500;29;20084;-78
2022/12/19 10:07:43;;;;;;;5.60;0.80;;;13.60;58.50;;;;;;4825370;29;20133;-75
2022/12/19 10:10:19;;;;;;;4.55;0.75;;;13.70;58.30;;;;;;4825372;29;20058;-76
2022/12/19 10:13:27;;;;;;;7.30;1.20;;;13.90;58.30;;;;;;4824872;29;20130;-78
2022/12/19 10:16:15;;;;;;;8.32;0.88;;;14.00;58.20;;;;;;4824638;29;20351;-77
2022/12/19 10:19:04;;;;;;;1.90;0.70;;;14.10;58.10;;;;;;4830398;29;20114;-77
2022/12/19 10:22:27;;;;;;;1.63;0.68;;;14.20;57.90;;;;;;4846667;29;20045;-76
2022/12/19 10:25:32;;;;;;;2.05;0.82;;;14.40;57.50;;;;;;4789672;30;20062;-76
2022/12/19 10:28:10;;;;;;;4.32;0.90;;;14.50;57.20;;;;;;4789962;30;20081;-77
2022/12/19 10:30:48;;;;;;;3.45;1.00;;;14.70;57.00;;;;;;4836478;29;20062;-76
2022/12/19 10:33:31;;;;;;;9.55;1.27;;;14.80;56.80;;;;;;4845200;29;20124;-76
2022/12/19 10:35:59;;;;;;;2.80;1.30;;;14.90;56.80;;;;;;4846762;29;20110;-77
2022/12/19 10:39:04;;;;;;;5.50;2.42;;;15.00;56.90;;;;;;4846472;29;20122;-77
2022/12/19 10:41:31;;;;;;;9.52;2.60;;;15.00;57.30;;;;;;4821158;29;20146;-77
2022/12/19 10:44:06;;;;;;;5.60;2.45;;;15.10;57.30;;;;;;4835355;29;20358;-77
2022/12/19 10:46:34;;;;;;;4.07;2.13;;;15.20;57.50;;;;;;4827306;29;20194;-77
2022/12/19 10:49:05;;;;;;;10.50;2.58;;;15.30;57.40;;;;;;4828211;29;20157;-77
2022/12/19 10:51:31;;;;;;;14.73;2.53;;;15.30;57.30;;;;;;4827336;29;20074;-78
2022/12/19 10:53:59;;;;;;;5.78;2.25;;;15.40;57.30;;;;;;4810838;29;20087;-75
2022/12/19 10:56:29;;;;;;;8.25;2.20;;;15.40;57.10;;;;;;4826081;29;20108;-76
2022/12/19 10:58:57;;;;;;;5.03;1.75;;;15.40;56.90;;;;;;4828032;29;20474;-79
2022/12/19 11:01:29;;;;;;;4.82;1.52;;;15.50;56.90;;;;;;4838952;29;20054;-76
2022/12/19 11:04:16;;;;;;;5.60;1.70;;;15.50;56.80;;;;;;4829678;29;20339;-75
2022/12/19 11:07:03;;;;;;;6.28;1.83;;;15.60;56.80;;;;;;4838484;29;20050;-76
2022/12/19 11:09:37;;;;;;;5.88;1.40;;;15.60;56.60;;;;;;4846209;29;20177;-77
2022/12/19 11:12:06;;;;;;;6.55;1.98;;;15.70;56.50;;;;;;4842675;29;20053;-75
2022/12/19 11:14:33;;;;;;;5.70;1.48;;;15.70;56.40;;;;;;4846410;29;20241;-76
2022/12/19 11:16:59;;;;;;;4.25;1.60;;;15.70;56.40;;;;;;4829724;29;20149;-77
2022/12/19 11:19:31;;;;;;;4.88;1.35;;;15.80;56.20;;;;;;4829958;29;20058;-76
2022/12/19 11:22:04;;;;;;;7.03;1.83;;;15.90;56.10;;;;;;4838699;29;20060;-76
2022/12/19 11:24:45;;;;;;;5.97;1.53;;;15.80;56.20;;;;;;4846058;29;20058;-76
2022/12/19 11:27:29;;;;;;;5.45;1.65;;;15.90;56.20;;;;;;4844984;29;20287;-76
2022/12/19 11:29:56;;;;;;;7.03;1.50;;;15.90;56.10;;;;;;4845609;29;20050;-75
2022/12/19 11:32:35;;;;;;;8.23;1.50;;;15.90;56.10;;;;;;4811002;29;20054;-76
2022/12/19 11:35:22;;;;;;;7.28;1.52;;;15.90;56.10;;;;;;4827645;29;20054;-76
2022/12/19 11:37:58;;;;;;;7.65;1.38;;;15.90;56.80;;;;;;4826707;29;20153;-76
2022/12/19 11:40:24;;;;;;;8.68;1.60;;;15.90;56.30;;;;;;4825588;29;20046;-75
2022/12/19 11:43:02;;;;;;;5.05;1.40;;;15.90;56.20;;;;;;4833115;29;20050;-76
2022/12/19 11:46:01;;;;;;;8.90;1.52;;;15.90;56.20;;;;;;4845360;29;20066;-77
2022/12/19 11:48:43;;;;;;;8.43;1.67;;;16.00;56.10;;;;;;4844959;29;20480;-76
2022/12/19 11:51:27;;;;;;;7.63;1.30;;;16.00;56.00;;;;;;4835620;29;20050;-77
2022/12/19 11:53:58;;;;;;;;;;;16.00;56.00;;;;;;4808990;29;20055;-76
2022/12/19 11:56:26;;;;;;;4.10;1.02;;;16.00;55.90;;;;;;4808886;29;19925;-77
2022/12/19 11:59:17;;;;;;;5.15;1.30;;;15.80;53.60;;;;;;4817367;29;20102;-77
2022/12/19 12:01:54;;;;;;;5.28;1.38;;;16.00;56.30;;;;;;4813515;29;20062;-77
2022/12/19 12:05:04;;;;;;;8.30;1.52;;;16.00;56.20;;;;;;4808441;29;20133;-76
2022/12/19 12:07:35;;;;;;;9.38;1.25;;;16.10;56.10;;;;;;4808643;29;20061;-76
2022/12/19 12:10:17;;;;;;;8.23;1.23;;;16.00;56.60;;;;;;4792827;29;20061;-76
2022/12/19 12:13:04;;;;;;;7.40;1.58;;;16.10;56.60;;;;;;4808186;29;20123;-78
2022/12/19 12:15:42;;;;;;;3.67;1.10;;;16.10;56.60;;;;;;4777468;29;20054;-76
2022/12/19 12:18:34;;;;;;;5.32;1.45;;;16.10;56.50;;;;;;4808514;29;20050;-77
2022/12/19 12:21:28;;;;;;;3.72;1.17;;;16.10;56.30;;;;;;4773514;29;20063;-78
2022/12/19 12:23:59;;;;;;;6.55;1.52;;;16.10;56.10;;;;;;4792037;29;20059;-76
2022/12/19 12:27:14;;;;;;;8.50;1.75;;;16.10;56.30;;;;;;4808098;29;20094;-78
2022/12/19 12:29:59;;;;;;;15.90;2.53;;;16.10;56.40;;;;;;4808738;29;20051;-78
2022/12/19 12:32:38;;;;;;;12.55;2.00;;;16.10;56.50;;;;;;4807603;29;20144;-77
2022/12/19 12:35:26;;;;;;;13.45;2.70;;;16.20;56.50;;;;;;4808340;29;20521;-77
2022/12/19 12:37:52;;;;;;;16.75;2.38;;;16.20;56.50;;;;;;4792045;29;20064;-76
2022/12/19 12:40:48;;;;;;;12.48;2.92;;;16.20;56.30;;;;;;4807016;29;20138;-78
2022/12/19 12:43:23;;;;;;;9.85;1.95;;;16.10;56.10;;;;;;4807971;29;20050;-78
2022/12/19 12:45:49;;;;;;;10.30;1.70;;;16.10;56.10;;;;;;4808454;29;20074;-77
2022/12/19 12:48:39;;;;;;;10.48;1.55;;;16.00;56.20;;;;;;4792242;29;20059;-78
2022/12/19 12:51:06;;;;;;;8.20;2.03;;;15.90;56.20;;;;;;4791914;29;20071;-78
2022/12/19 12:53:35;;;;;;;10.35;1.73;;;15.80;56.30;;;;;;4825906;29;20065;-78
2022/12/19 12:56:03;;;;;;;7.57;1.48;;;15.80;56.40;;;;;;4809726;29;20195;-76
2022/12/19 12:58:47;;;;;;;6.15;1.23;;;15.70;56.40;;;;;;4826043;29;20085;-76
2022/12/19 13:01:28;;;;;;;6.45;1.45;;;15.60;56.40;;;;;;4825731;29;20058;-77
2022/12/19 13:04:02;;;;;;;5.80;1.38;;;15.60;56.50;;;;;;4826723;29;20443;-77
2022/12/19 13:06:37;;;;;;;5.60;1.40;;;15.50;56.60;;;;;;4826300;29;20054;-78
2022/12/19 13:09:21;;;;;;;6.50;1.40;;;15.40;56.90;;;;;;4826039;29;20323;-79
2022/12/19 13:15:17;;;;;;;5.22;1.15;;;15.30;56.80;;;;;;4824671;29;20062;-77
2022/12/19 13:17:48;;;;;;;2.65;1.23;;;15.20;56.90;;;;;;4826113;29;20054;-77
2022/12/19 13:20:17;;;;;;;8.50;1.42;;;15.10;56.90;;;;;;4809767;29;20374;-77
2022/12/19 13:23:00;;;;;;;4.70;1.40;;;15.10;57.10;;;;;;4807830;29;20145;-76
2022/12/19 13:25:25;;;;;;;3.72;1.50;;;15.00;57.10;;;;;;4807607;29;20098;-77
2022/12/19 13:28:00;;;;;;;4.30;1.30;;;15.00;57.10;;;;;;4807952;29;20347;-77
2022/12/19 13:30:27;;;;;;;5.60;1.27;;;15.00;57.20;;;;;;4807601;29;20062;-78
2022/12/19 13:32:53;;;;;;;3.80;1.40;;;14.90;57.20;;;;;;4810020;29;20475;-76
2022/12/19 13:35:18;;;;;;;6.57;1.27;;;14.80;57.30;;;;;;4825797;29;20057;-77
2022/12/19 13:37:47;;;;;;;5.15;1.27;;;14.80;57.40;;;;;;4825934;29;20054;-78
2022/12/19 13:40:31;;;;;;;4.10;1.30;;;14.70;57.30;;;;;;4825355;29;20478;-77
2022/12/19 13:46:20;;;;;;;3.10;1.30;;;14.70;57.40;;;;;;4807366;29;20063;-78
2022/12/19 13:48:51;;;;;;;3.78;1.40;;;14.60;57.30;;;;;;4807610;29;20054;-76
2022/12/19 13:51:17;;;;;;;5.00;1.20;;;14.60;57.60;;;;;;4814772;29;20053;-76
2022/12/19 13:53:43;;;;;;;10.68;2.05;;;14.60;57.90;;;;;;4828947;29;20054;-76
2022/12/19 13:56:13;;;;;;;10.52;1.90;;;14.60;58.50;;;;;;4813090;29;20054;-77
2022/12/19 13:58:50;;;;;;;11.75;2.38;;;14.50;59.00;;;;;;4828789;29;20069;-75
2022/12/19 14:01:36;;;;;;;8.15;1.42;;;14.50;59.60;;;;;;4825495;29;20060;-74
2022/12/19 14:04:27;;;;;;;11.98;1.63;;;14.50;58.10;;;;;;4847138;29;20369;-76
2022/12/19 14:06:58;;;;;;;19.10;1.75;;;14.30;59.00;;;;;;4847412;29;20422;-76
2022/12/19 14:09:36;;;;;;;7.22;2.00;;;14.10;59.70;;;;;;4826140;29;20100;-75
2022/12/19 14:12:04;;;;;;;7.22;1.20;;;14.00;59.10;;;;;;4812192;29;20058;-77
2022/12/19 14:17:20;;;;;;;6.80;1.10;;;13.70;60.20;;;;;;4823972;29;20574;-75
2022/12/19 14:19:49;;;;;;;4.97;0.82;;;13.70;61.20;;;;;;4827452;29;20081;-76
2022/12/19 14:22:18;;;;;;;9.93;1.20;;;13.70;61.80;;;;;;4827809;29;20381;-75
2022/12/19 14:24:56;;;;;;;6.22;1.55;;;13.80;62.20;;;;;;4828276;29;20086;-75
2022/12/19 14:27:35;;;;;;;4.90;1.05;;;13.80;62.50;;;;;;4828081;29;20051;-74
2022/12/19 14:30:04;;;;;;;4.85;1.13;;;13.80;62.50;;;;;;4827711;29;20047;-75
2022/12/19 14:32:31;;;;;;;4.90;1.15;;;13.90;62.60;;;;;;4827615;29;20134;-75
2022/12/19 14:35:01;;;;;;;7.40;1.05;;;13.90;62.80;;;;;;4826774;29;20093;-74
2022/12/19 14:37:32;;;;;;;4.28;0.95;;;13.90;62.50;;;;;;4828090;29;20051;-75
2022/12/19 14:40:04;;;;;;;5.20;1.05;;;13.90;62.40;;;;;;4828046;29;20054;-76
2022/12/19 14:45:33;;;;;;;4.45;0.75;;;13.90;62.60;;;;;;4811802;29;20133;-77
2022/12/19 14:47:58;;;;;;;4.15;0.93;;;13.90;62.60;;;;;;4828189;29;20127;-75
2022/12/19 14:50:33;;;;;;;2.95;0.68;;;13.80;62.40;;;;;;4827555;29;20367;-75
2022/12/19 14:53:15;;;;;;;8.27;1.25;;;13.80;62.60;;;;;;4827680;29;20455;-76
2022/12/19 14:55:47;;;;;;;6.97;1.38;;;13.90;62.80;;;;;;4827735;29;20093;-75
2022/12/19 14:58:27;;;;;;;4.50;0.80;;;13.80;62.80;;;;;;4827748;29;20064;-77
2022/12/19 15:00:53;;;;;;;2.75;0.70;;;13.80;62.90;;;;;;4827625;29;20121;-73
2022/12/19 15:03:29;;;;;;;3.17;0.60;;;13.80;62.80;;;;;;4827054;29;20525;-73
2022/12/19 15:06:15;;;;;;;5.28;1.42;;;13.80;62.80;;;;;;4827642;29;20065;-74
2022/12/19 15:08:41;;;;;;;3.03;0.98;;;13.80;62.60;;;;;;4827465;29;20050;-74
2022/12/19 15:14:09;;;;;;;4.22;1.02;;;13.80;62.90;;;;;;4827538;29;20068;-74
2022/12/19 15:16:35;;;;;;;5.55;1.15;;;13.80;62.90;;;;;;4827460;29;20133;-72
2022/12/19 15:19:02;;;;;;;2.53;0.60;;;13.80;62.90;;;;;;4833196;29;20457;-75
2022/12/19 15:21:29;;;;;;;7.57;1.42;;;13.80;62.80;;;;;;4828198;29;20137;-72
2022/12/19 15:23:55;;;;;;;6.55;1.17;;;13.70;62.90;;;;;;4827951;29;20393;-74
2022/12/19 15:26:32;;;;;;;5.93;0.80;;;13.80;62.80;;;;;;4827682;29;20141;-72
2022/12/19 15:28:58;;;;;;;8.13;1.48;;;13.80;62.90;;;;;;4827436;29;20046;-73
2022/12/19 15:31:30;;;;;;;12.45;2.45;;;13.80;63.10;;;;;;4826820;29;20088;-71
2022/12/19 15:33:57;;;;;;;10.38;3.55;;;13.80;63.20;;;;;;4827495;29;20118;-70
2022/12/19 15:36:23;;;;;;;9.00;2.85;;;13.80;63.50;;;;;;4827296;29;20443;-73
2022/12/19 15:38:49;;;;;;;8.30;3.03;;;13.80;63.60;;;;;;4811536;29;20122;-74
2022/12/19 15:41:22;;;;;;;10.57;2.65;;;13.70;63.70;;;;;;4825723;29;20114;-74
2022/12/19 15:43:49;;;;;;;13.38;2.97;;;13.70;64.10;;;;;;4827192;29;20046;-74
2022/12/19 15:46:15;;;;;;;9.77;2.35;;;13.70;64.40;;;;;;4827167;29;20401;-79
2022/12/19 15:48:49;;;;;;;7.63;2.38;;;13.90;64.50;;;;;;4826979;29;20470;-74
2022/12/19 15:51:15;;;;;;;21.65;3.25;;;14.10;64.50;;;;;;4825969;29;20069;-72
2022/12/19 15:53:42;;;;;;;16.17;2.72;;;14.20;64.20;;;;;;4809331;29;20145;-76
2022/12/19 15:56:35;;;;;;;20.50;2.80;;;14.40;64.10;;;;;;4809237;29;20143;-75
2022/12/19 15:59:02;;;;;;;23.65;3.10;;;14.50;64.30;;;;;;4790730;29;20061;-78
2022/12/19 16:01:30;;;;;;;18.70;2.80;;;14.60;63.90;;;;;;4808655;29;20086;-77
2022/12/19 16:03:58;;;;;;;15.50;2.83;;;14.60;63.80;;;;;;4792742;29;20126;-77
2022/12/19 16:06:28;;;;;;;13.98;2.60;;;14.70;64.00;;;;;;4808517;29;20147;-78
2022/12/19 16:08:54;;;;;;;13.63;3.30;;;14.70;63.80;;;;;;4808595;29;20197;-77
2022/12/19 16:11:27;;;;;;;10.05;2.33;;;14.70;63.70;;;;;;4807171;29;20120;-78
2022/12/19 16:13:57;;;;;;;17.20;2.47;;;14.70;63.80;;;;;;4808639;29;20111;-80
2022/12/19 16:16:26;;;;;;;16.90;3.55;;;14.80;63.90;;;;;;4808722;29;20097;-78
2022/12/19 16:18:51;;;;;;;9.77;2.67;;;14.80;63.90;;;;;;4808344;29;20417;-76
2022/12/19 16:21:20;;;;;;;18.65;2.95;;;14.80;64.10;;;;;;4808028;29;20110;-80
2022/12/19 16:23:46;;;;;;;15.38;3.22;;;14.90;64.90;;;;;;4808344;29;20122;-74
2022/12/19 16:26:28;;;;;;;16.35;2.95;;;14.90;64.50;;;;;;4808228;29;20503;-76
2022/12/19 16:28:54;;;;;;;12.75;2.45;;;14.90;64.90;;;;;;4808251;29;20050;-71
2022/12/19 16:31:24;;;;;;;15.52;2.53;;;15.00;64.70;;;;;;4807702;29;20070;-76
2022/12/19 16:33:50;;;;;;;8.60;2.80;;;15.00;64.80;;;;;;4777297;29;20136;-77
2022/12/19 16:36:16;;;;;;;12.38;2.30;;;15.10;64.90;;;;;;4808038;29;20058;-77
2022/12/19 16:38:42;;;;;;;13.32;2.58;;;15.20;65.40;;;;;;4808259;29;20055;-78
2022/12/19 16:41:18;;;;;;;11.98;2.60;;;15.30;65.90;;;;;;4791886;29;20043;-79
2022/12/19 16:43:45;;;;;;;14.65;3.05;;;15.50;66.20;;;;;;4808242;29;20066;-78
2022/12/19 16:46:20;;;;;;;17.55;2.55;;;15.60;66.10;;;;;;4807634;29;20493;-77
2022/12/19 16:48:47;;;;;;;9.20;1.83;;;15.60;66.20;;;;;;4808555;29;20061;-78
2022/12/19 16:51:19;;;;;;;9.05;2.00;;;15.60;66.00;;;;;;4791648;29;20374;-78
2022/12/19 16:53:45;;;;;;;10.82;2.38;;;15.60;66.30;;;;;;4808236;29;20413;-78
2022/12/19 16:56:44;;;;;;;18.45;3.65;;;15.70;66.20;;;;;;4808629;29;20129;-78
2022/12/19 16:59:29;;;;;;;9.70;2.13;;;15.70;66.20;;;;;;4804201;29;20379;-75
2022/12/19 17:01:56;;;;;;;11.30;2.55;;;15.60;65.80;;;;;;4807795;29;20051;-77
2022/12/19 17:04:23;;;;;;;10.10;2.05;;;15.60;65.70;;;;;;4808042;29;20050;-77
2022/12/19 17:06:52;;;;;;;13.50;2.58;;;15.50;65.60;;;;;;4807643;29;20101;-76
2022/12/19 17:09:20;;;;;;;10.15;3.05;;;15.50;65.80;;;;;;4807748;29;20421;-78
2022/12/19 17:11:57;;;;;;;13.35;3.13;;;15.40;66.00;;;;;;4791441;29;20077;-76
2022/12/19 17:14:26;;;;;;;19.58;3.75;;;15.30;66.30;;;;;;4807154;29;20057;-76
2022/12/19 17:16:56;;;;;;;24.55;4.38;;;15.30;66.30;;;;;;4807831;29;20481;-74
2022/12/19 17:19:40;;;;;;;19.08;3.15;;;15.20;66.30;;;;;;4807156;29;20135;-77
2022/12/19 17:22:13;;;;;;;;;;;15.20;66.40;;;;;;4789084;30;20357;-77
2022/12/19 17:24:38;;;;;;;16.40;3.22;;;15.10;66.60;;;;;;4788162;30;19933;-77
2022/12/19 17:27:04;;;;;;;13.98;3.00;;;15.10;66.40;;;;;;4792279;29;20039;-74
2022/12/19 17:29:31;;;;;;;11.95;2.97;;;15.10;66.10;;;;;;4793195;30;20093;-78
2022/12/19 17:31:57;;;;;;;16.45;3.63;;;15.10;65.80;;;;;;4810206;29;20093;-79
2022/12/19 17:34:42;;;;;;;16.85;3.15;;;15.00;65.40;;;;;;4795239;29;20090;-78
2022/12/19 17:37:15;;;;;;;7.70;3.00;;;15.00;65.10;;;;;;4811464;29;20090;-79
2022/12/19 17:39:41;;;;;;;13.88;3.25;;;15.00;64.80;;;;;;4811264;29;20065;-79
2022/12/19 17:42:20;;;;;;;12.75;3.13;;;15.00;64.70;;;;;;4811038;29;20051;-79
2022/12/19 17:44:46;;;;;;;6.72;2.40;;;14.90;63.90;;;;;;4810800;29;20055;-78
2022/12/19 17:47:16;;;;;;;8.18;2.60;;;14.80;63.90;;;;;;4810969;29;20055;-78
2022/12/19 17:49:42;;;;;;;5.93;2.28;;;14.80;63.80;;;;;;4810401;29;20134;-79
2022/12/19 17:52:13;;;;;;;9.48;2.92;;;14.70;63.80;;;;;;4818695;29;20159;-79
2022/12/19 17:54:39;;;;;;;5.97;2.13;;;14.70;63.80;;;;;;4813080;29;20140;-78
2022/12/19 17:57:05;;;;;;;7.80;1.83;;;14.70;63.80;;;;;;4828826;29;20125;-79
2022/12/19 17:59:30;;;;;;;8.30;2.38;;;14.60;63.80;;;;;;4828997;29;20339;-79
2022/12/19 18:01:56;;;;;;;7.78;2.17;;;14.60;63.90;;;;;;4828121;29;20050;-79
2022/12/19 18:04:23;;;;;;;12.95;2.97;;;14.50;63.80;;;;;;4828855;29;20038;-79
2022/12/19 18:06:49;;;;;;;9.55;2.50;;;14.50;63.90;;;;;;4813131;29;20165;-78
2022/12/19 18:09:20;;;;;;;5.40;2.20;;;14.50;63.90;;;;;;4828742;29;20055;-79
2022/12/19 18:11:47;;;;;;;8.13;2.38;;;14.40;63.90;;;;;;4828177;29;20050;-78
2022/12/19 18:14:14;;;;;;;4.13;1.75;;;14.40;64.00;;;;;;4828791;29;20046;-77